sensor_id;sensor_type;location;lat;lon;timestamp;pressure;altitude;pressure_sealevel;temperature;humidity
55604;BME280;41468;48.838;9.330;2023-04-06T00:01:07;98578.41;;;2.89;65.24
55604;BME280;41468;48.838;9.330;2023-04-06T00:03:34;98571.09;;;2.90;65.19
55604;BME280;41468;48.838;9.330;2023-04-06T00:06:01;98565.41;;;2.91;65.25
55604;BME280;41468;48.838;9.330;2023-04-06T00:08:28;98572.38;;;2.92;65.00
55604;BME280;41468;48.838;9.330;2023-04-06T00:10:59;98580.06;;;3.07;64.75
55604;BME280;41468;48.838;9.330;2023-04-06T00:13:27;98571.50;;;3.05;64.42
55604;BME280;41468;48.838;9.330;2023-04-06T00:15:53;98563.38;;;3.05;64.55
55604;BME280;41468;48.838;9.330;2023-04-06T00:18:20;98567.53;;;3.12;64.26
55604;BME280;41468;48.838;9.330;2023-04-06T00:20:58;98566.56;;;2.99;64.35
55604;BME280;41468;48.838;9.330;2023-04-06T00:23:25;98563.19;;;2.93;64.88
55604;BME280;41468;48.838;9.330;2023-04-06T00:25:52;98565.06;;;2.93;64.82
55604;BME280;41468;48.838;9.330;2023-04-06T00:28:18;98565.94;;;3.02;64.58
55604;BME280;41468;48.838;9.330;2023-04-06T00:30:54;98568.41;;;2.90;64.92
55604;BME280;41468;48.838;9.330;2023-04-06T00:33:28;98557.34;;;2.69;65.62
55604;BME280;41468;48.838;9.330;2023-04-06T00:35:55;98557.44;;;2.86;64.99
55604;BME280;41468;48.838;9.330;2023-04-06T00:38:22;98560.28;;;2.81;65.16
55604;BME280;41468;48.838;9.330;2023-04-06T00:40:49;98557.56;;;2.81;65.24
55604;BME280;41468;48.838;9.330;2023-04-06T00:43:16;98552.03;;;2.77;65.37
55604;BME280;41468;48.838;9.330;2023-04-06T00:45:42;98557.84;;;2.71;65.17
55604;BME280;41468;48.838;9.330;2023-04-06T00:48:09;98555.84;;;2.54;65.73
55604;BME280;41468;48.838;9.330;2023-04-06T00:50:36;98559.22;;;2.59;65.59
55604;BME280;41468;48.838;9.330;2023-04-06T00:53:03;98553.69;;;2.64;65.78
55604;BME280;41468;48.838;9.330;2023-04-06T00:55:29;98553.66;;;2.56;65.95
55604;BME280;41468;48.838;9.330;2023-04-06T00:57:57;98556.91;;;2.44;66.54
55604;BME280;41468;48.838;9.330;2023-04-06T01:00:25;98552.75;;;2.38;66.90
55604;BME280;41468;48.838;9.330;2023-04-06T01:02:52;98552.75;;;2.38;67.10
55604;BME280;41468;48.838;9.330;2023-04-06T01:05:19;98546.72;;;2.41;66.88
55604;BME280;41468;48.838;9.330;2023-04-06T01:07:46;98545.97;;;2.18;67.65
55604;BME280;41468;48.838;9.330;2023-04-06T01:10:26;98544.00;;;2.32;67.27
55604;BME280;41468;48.838;9.330;2023-04-06T01:13:00;98554.22;;;2.21;67.73
55604;BME280;41468;48.838;9.330;2023-04-06T01:15:28;98538.47;;;2.37;67.30
55604;BME280;41468;48.838;9.330;2023-04-06T01:17:55;98537.34;;;2.38;66.69
55604;BME280;41468;48.838;9.330;2023-04-06T01:20:21;98531.63;;;2.31;66.61
55604;BME280;41468;48.838;9.330;2023-04-06T01:22:48;98533.44;;;2.45;66.14
55604;BME280;41468;48.838;9.330;2023-04-06T01:25:15;98535.41;;;2.30;66.61
55604;BME280;41468;48.838;9.330;2023-04-06T01:27:42;98537.81;;;2.32;66.68
55604;BME280;41468;48.838;9.330;2023-04-06T01:30:09;98535.41;;;2.30;66.64
55604;BME280;41468;48.838;9.330;2023-04-06T01:32:36;98536.56;;;2.38;67.01
55604;BME280;41468;48.838;9.330;2023-04-06T01:35:02;98524.88;;;2.20;67.56
55604;BME280;41468;48.838;9.330;2023-04-06T01:37:29;98529.34;;;2.25;66.93
55604;BME280;41468;48.838;9.330;2023-04-06T01:39:59;98531.94;;;2.30;67.00
55604;BME280;41468;48.838;9.330;2023-04-06T01:42:27;98524.97;;;2.29;66.89
55604;BME280;41468;48.838;9.330;2023-04-06T01:44:54;98522.84;;;2.26;66.88
55604;BME280;41468;48.838;9.330;2023-04-06T01:47:21;98520.31;;;2.20;66.97
55604;BME280;41468;48.838;9.330;2023-04-06T01:49:47;98523.09;;;2.38;66.84
55604;BME280;41468;48.838;9.330;2023-04-06T01:52:14;98519.75;;;2.10;67.11
55604;BME280;41468;48.838;9.330;2023-04-06T01:54:42;98522.91;;;2.12;67.46
55604;BME280;41468;48.838;9.330;2023-04-06T01:57:10;98518.03;;;1.91;68.00
55604;BME280;41468;48.838;9.330;2023-04-06T01:59:37;98522.75;;;2.08;67.70
55604;BME280;41468;48.838;9.330;2023-04-06T02:02:04;98515.78;;;2.07;68.03
55604;BME280;41468;48.838;9.330;2023-04-06T02:04:30;98517.66;;;2.07;67.85
55604;BME280;41468;48.838;9.330;2023-04-06T02:06:57;98515.91;;;2.02;68.11
55604;BME280;41468;48.838;9.330;2023-04-06T02:09:24;98518.31;;;1.90;68.41
55604;BME280;41468;48.838;9.330;2023-04-06T02:11:51;98517.25;;;1.91;67.80
55604;BME280;41468;48.838;9.330;2023-04-06T02:14:17;98520.63;;;1.96;68.04
55604;BME280;41468;48.838;9.330;2023-04-06T02:16:44;98514.66;;;1.86;68.45
55604;BME280;41468;48.838;9.330;2023-04-06T02:19:11;98517.09;;;1.73;68.72
55604;BME280;41468;48.838;9.330;2023-04-06T02:21:38;98514.09;;;1.75;68.78
55604;BME280;41468;48.838;9.330;2023-04-06T02:24:05;98515.03;;;1.93;68.10
55604;BME280;41468;48.838;9.330;2023-04-06T02:26:31;98515.94;;;2.11;67.42
55604;BME280;41468;48.838;9.330;2023-04-06T02:28:58;98514.72;;;1.94;67.43
55604;BME280;41468;48.838;9.330;2023-04-06T02:31:25;98511.72;;;1.96;67.70
55604;BME280;41468;48.838;9.330;2023-04-06T02:33:52;98507.88;;;1.88;68.01
55604;BME280;41468;48.838;9.330;2023-04-06T02:36:19;98514.28;;;1.79;68.52
55604;BME280;41468;48.838;9.330;2023-04-06T02:38:46;98509.81;;;1.74;68.76
55604;BME280;41468;48.838;9.330;2023-04-06T02:41:24;98506.88;;;1.84;68.49
55604;BME280;41468;48.838;9.330;2023-04-06T02:43:51;98506.53;;;1.63;69.34
55604;BME280;41468;48.838;9.330;2023-04-06T02:46:18;98507.47;;;1.59;69.51
55604;BME280;41468;48.838;9.330;2023-04-06T02:48:45;98502.00;;;1.50;69.98
55604;BME280;41468;48.838;9.330;2023-04-06T02:51:11;98503.59;;;1.51;69.74
55604;BME280;41468;48.838;9.330;2023-04-06T02:53:38;98501.03;;;1.46;69.96
55604;BME280;41468;48.838;9.330;2023-04-06T02:56:05;98497.72;;;1.49;69.51
55604;BME280;41468;48.838;9.330;2023-04-06T02:58:32;98501.09;;;1.54;68.82
55604;BME280;41468;48.838;9.330;2023-04-06T03:00:59;98496.50;;;1.55;69.18
55604;BME280;41468;48.838;9.330;2023-04-06T03:03:26;98492.22;;;1.54;68.69
55604;BME280;41468;48.838;9.330;2023-04-06T03:05:52;98496.44;;;1.46;68.94
55604;BME280;41468;48.838;9.330;2023-04-06T03:08:21;98492.94;;;1.46;68.68
55604;BME280;41468;48.838;9.330;2023-04-06T03:10:47;98494.38;;;1.66;68.28
55604;BME280;41468;48.838;9.330;2023-04-06T03:13:14;98485.81;;;1.64;68.27
55604;BME280;41468;48.838;9.330;2023-04-06T03:15:41;98492.28;;;1.40;68.98
55604;BME280;41468;48.838;9.330;2023-04-06T03:18:07;98489.66;;;1.49;69.40
55604;BME280;41468;48.838;9.330;2023-04-06T03:20:34;98490.88;;;1.29;70.17
55604;BME280;41468;48.838;9.330;2023-04-06T03:23:01;98492.88;;;1.37;70.15
55604;BME280;41468;48.838;9.330;2023-04-06T03:25:28;98494.28;;;1.07;71.05
55604;BME280;41468;48.838;9.330;2023-04-06T03:27:56;98493.69;;;1.10;70.92
55604;BME280;41468;48.838;9.330;2023-04-06T03:30:23;98492.88;;;1.23;70.51
55604;BME280;41468;48.838;9.330;2023-04-06T03:32:50;98497.19;;;1.24;70.34
55604;BME280;41468;48.838;9.330;2023-04-06T03:35:16;98503.75;;;1.18;70.75
55604;BME280;41468;48.838;9.330;2023-04-06T03:37:43;98499.88;;;1.24;70.04
55604;BME280;41468;48.838;9.330;2023-04-06T03:40:10;98503.06;;;1.26;70.41
55604;BME280;41468;48.838;9.330;2023-04-06T03:42:37;98503.53;;;1.28;70.36
55604;BME280;41468;48.838;9.330;2023-04-06T03:45:04;98501.84;;;1.32;69.78
55604;BME280;41468;48.838;9.330;2023-04-06T03:47:31;98506.63;;;1.36;69.40
55604;BME280;41468;48.838;9.330;2023-04-06T03:49:57;98499.06;;;1.38;69.59
55604;BME280;41468;48.838;9.330;2023-04-06T03:52:24;98505.84;;;1.35;69.46
55604;BME280;41468;48.838;9.330;2023-04-06T03:55:03;98504.69;;;1.50;68.38
55604;BME280;41468;48.838;9.330;2023-04-06T03:57:29;98513.59;;;1.37;68.77
55604;BME280;41468;48.838;9.330;2023-04-06T03:59:56;98511.38;;;1.52;68.28
55604;BME280;41468;48.838;9.330;2023-04-06T04:02:23;98518.19;;;1.36;68.82
55604;BME280;41468;48.838;9.330;2023-04-06T04:04:50;98519.75;;;1.51;68.38
55604;BME280;41468;48.838;9.330;2023-04-06T04:07:17;98517.34;;;1.49;68.26
55604;BME280;41468;48.838;9.330;2023-04-06T04:09:43;98519.47;;;1.39;68.77
55604;BME280;41468;48.838;9.330;2023-04-06T04:12:10;98518.19;;;1.36;69.51
55604;BME280;41468;48.838;9.330;2023-04-06T04:14:37;98524.75;;;1.44;68.44
55604;BME280;41468;48.838;9.330;2023-04-06T04:17:03;98527.19;;;1.68;67.63
55604;BME280;41468;48.838;9.330;2023-04-06T04:19:30;98529.47;;;1.61;68.00
55604;BME280;41468;48.838;9.330;2023-04-06T04:22:08;98524.13;;;1.47;68.55
55604;BME280;41468;48.838;9.330;2023-04-06T04:24:35;98528.16;;;1.36;69.43
55604;BME280;41468;48.838;9.330;2023-04-06T04:27:02;98526.56;;;1.35;69.62
55604;BME280;41468;48.838;9.330;2023-04-06T04:29:28;98529.34;;;1.29;69.94
55604;BME280;41468;48.838;9.330;2023-04-06T04:31:55;98523.75;;;1.26;69.29
55604;BME280;41468;48.838;9.330;2023-04-06T04:34:22;98522.63;;;1.54;68.22
55604;BME280;41468;48.838;9.330;2023-04-06T04:36:52;98525.34;;;1.41;68.83
55604;BME280;41468;48.838;9.330;2023-04-06T04:39:30;98528.38;;;1.12;69.85
55604;BME280;41468;48.838;9.330;2023-04-06T04:41:57;98526.56;;;1.07;69.79
55604;BME280;41468;48.838;9.330;2023-04-06T04:44:24;98532.16;;;1.24;69.83
55604;BME280;41468;48.838;9.330;2023-04-06T04:46:51;98527.38;;;1.21;69.48
55604;BME280;41468;48.838;9.330;2023-04-06T04:49:18;98527.94;;;1.18;69.57
55604;BME280;41468;48.838;9.330;2023-04-06T04:51:44;98530.94;;;1.30;69.55
55604;BME280;41468;48.838;9.330;2023-04-06T04:54:11;98526.69;;;1.16;70.05
55604;BME280;41468;48.838;9.330;2023-04-06T04:56:38;98536.63;;;1.15;70.16
55604;BME280;41468;48.838;9.330;2023-04-06T04:59:04;98530.84;;;1.22;69.89
55604;BME280;41468;48.838;9.330;2023-04-06T05:01:42;98528.16;;;1.36;69.29
55604;BME280;41468;48.838;9.330;2023-04-06T05:04:20;98531.34;;;1.10;69.91
55604;BME280;41468;48.838;9.330;2023-04-06T05:06:47;98533.34;;;0.91;70.94
55604;BME280;41468;48.838;9.330;2023-04-06T05:09:14;98533.84;;;1.06;70.80
55604;BME280;41468;48.838;9.330;2023-04-06T05:11:40;98536.53;;;0.93;70.89
55604;BME280;41468;48.838;9.330;2023-04-06T05:14:07;98531.75;;;1.03;70.58
55604;BME280;41468;48.838;9.330;2023-04-06T05:16:34;98537.91;;;1.18;69.82
55604;BME280;41468;48.838;9.330;2023-04-06T05:19:01;98535.72;;;1.20;69.08
55604;BME280;41468;48.838;9.330;2023-04-06T05:21:28;98545.97;;;1.31;68.46
55604;BME280;41468;48.838;9.330;2023-04-06T05:23:54;98542.91;;;1.24;69.05
55604;BME280;41468;48.838;9.330;2023-04-06T05:26:22;98552.47;;;1.30;68.90
55604;BME280;41468;48.838;9.330;2023-04-06T05:28:48;98552.47;;;1.17;69.51
55604;BME280;41468;48.838;9.330;2023-04-06T05:31:15;98557.06;;;1.16;69.78
55604;BME280;41468;48.838;9.330;2023-04-06T05:33:43;98555.53;;;1.10;70.22
55604;BME280;41468;48.838;9.330;2023-04-06T05:36:09;98562.81;;;1.09;70.36
55604;BME280;41468;48.838;9.330;2023-04-06T05:38:40;98564.81;;;1.04;70.16
55604;BME280;41468;48.838;9.330;2023-04-06T05:41:06;98571.59;;;1.15;70.36
55604;BME280;41468;48.838;9.330;2023-04-06T05:43:33;98560.94;;;1.24;70.00
55604;BME280;41468;48.838;9.330;2023-04-06T05:46:00;98566.91;;;1.07;70.68
55604;BME280;41468;48.838;9.330;2023-04-06T05:48:26;98568.50;;;1.22;70.17
55604;BME280;41468;48.838;9.330;2023-04-06T05:50:58;98558.53;;;1.22;69.88
55604;BME280;41468;48.838;9.330;2023-04-06T05:53:24;98564.94;;;1.26;69.62
55604;BME280;41468;48.838;9.330;2023-04-06T05:55:52;98563.63;;;1.38;69.16
55604;BME280;41468;48.838;9.330;2023-04-06T05:58:19;98566.78;;;1.40;69.12
55604;BME280;41468;48.838;9.330;2023-04-06T06:00:46;98569.97;;;1.42;69.26
55604;BME280;41468;48.838;9.330;2023-04-06T06:03:13;98568.00;;;1.33;69.60
55604;BME280;41468;48.838;9.330;2023-04-06T06:05:41;98568.59;;;1.44;69.27
55604;BME280;41468;48.838;9.330;2023-04-06T06:08:08;98560.59;;;1.53;68.99
55604;BME280;41468;48.838;9.330;2023-04-06T06:10:45;98571.97;;;1.50;69.06
55604;BME280;41468;48.838;9.330;2023-04-06T06:13:12;98575.44;;;1.64;68.80
55604;BME280;41468;48.838;9.330;2023-04-06T06:15:39;98574.13;;;1.75;68.58
55604;BME280;41468;48.838;9.330;2023-04-06T06:18:05;98574.38;;;1.88;68.26
55604;BME280;41468;48.838;9.330;2023-04-06T06:20:32;98581.00;;;2.04;67.60
55604;BME280;41468;48.838;9.330;2023-04-06T06:23:04;98574.47;;;1.96;67.41
55604;BME280;41468;48.838;9.330;2023-04-06T06:25:32;98575.25;;;1.97;67.44
55604;BME280;41468;48.838;9.330;2023-04-06T06:27:59;98575.31;;;2.06;67.04
55604;BME280;41468;48.838;9.330;2023-04-06T06:30:26;98577.53;;;2.04;67.10
55604;BME280;41468;48.838;9.330;2023-04-06T06:32:52;98572.78;;;2.23;65.97
55604;BME280;41468;48.838;9.330;2023-04-06T06:35:19;98571.09;;;2.36;65.71
55604;BME280;41468;48.838;9.330;2023-04-06T06:37:46;98578.13;;;2.68;64.54
55604;BME280;41468;48.838;9.330;2023-04-06T06:40:13;98579.28;;;2.76;64.42
55604;BME280;41468;48.838;9.330;2023-04-06T06:42:42;98577.47;;;2.94;64.16
55604;BME280;41468;48.838;9.330;2023-04-06T06:45:09;98575.84;;;3.24;63.13
55604;BME280;41468;48.838;9.330;2023-04-06T06:47:36;98571.16;;;3.56;61.68
55604;BME280;41468;48.838;9.330;2023-04-06T06:50:03;98574.38;;;3.58;61.68
55604;BME280;41468;48.838;9.330;2023-04-06T06:52:30;98577.25;;;3.87;60.93
55604;BME280;41468;48.838;9.330;2023-04-06T06:54:57;98571.56;;;4.06;59.46
55604;BME280;41468;48.838;9.330;2023-04-06T06:57:24;98577.44;;;4.17;59.64
55604;BME280;41468;48.838;9.330;2023-04-06T06:59:51;98572.78;;;4.52;58.81
55604;BME280;41468;48.838;9.330;2023-04-06T07:02:17;98583.28;;;4.62;58.28
55604;BME280;41468;48.838;9.330;2023-04-06T07:04:47;98581.91;;;4.95;57.28
55604;BME280;41468;48.838;9.330;2023-04-06T07:07:14;98581.22;;;5.06;57.40
55604;BME280;41468;48.838;9.330;2023-04-06T07:09:41;98579.09;;;5.21;57.35
55604;BME280;41468;48.838;9.330;2023-04-06T07:12:08;98580.69;;;5.22;56.61
55604;BME280;41468;48.838;9.330;2023-04-06T07:14:34;98589.75;;;5.56;55.67
55604;BME280;41468;48.838;9.330;2023-04-06T07:17:12;98588.88;;;5.72;54.54
55604;BME280;41468;48.838;9.330;2023-04-06T07:19:39;98585.22;;;5.98;55.04
55604;BME280;41468;48.838;9.330;2023-04-06T07:22:06;98590.28;;;6.20;53.77
55604;BME280;41468;48.838;9.330;2023-04-06T07:24:33;98589.09;;;6.30;52.88
55604;BME280;41468;48.838;9.330;2023-04-06T07:27:00;98594.72;;;6.46;52.93
55604;BME280;41468;48.838;9.330;2023-04-06T07:29:34;98587.31;;;6.68;52.06
55604;BME280;41468;48.838;9.330;2023-04-06T07:32:00;98587.81;;;6.82;52.57
55604;BME280;41468;48.838;9.330;2023-04-06T07:34:28;98595.31;;;6.97;51.53
55604;BME280;41468;48.838;9.330;2023-04-06T07:36:54;98582.88;;;7.08;50.76
55604;BME280;41468;48.838;9.330;2023-04-06T07:39:23;98595.47;;;7.25;51.04
55604;BME280;41468;48.838;9.330;2023-04-06T07:41:50;98589.44;;;7.93;51.38
55604;BME280;41468;48.838;9.330;2023-04-06T07:44:16;98594.00;;;7.65;49.06
55604;BME280;41468;48.838;9.330;2023-04-06T07:46:43;98597.16;;;7.79;48.97
55604;BME280;41468;48.838;9.330;2023-04-06T07:49:10;98588.34;;;7.58;48.50
55604;BME280;41468;48.838;9.330;2023-04-06T07:51:38;98580.97;;;7.83;48.93
55604;BME280;41468;48.838;9.330;2023-04-06T07:54:16;98580.50;;;8.21;48.83
55604;BME280;41468;48.838;9.330;2023-04-06T07:56:42;98572.50;;;8.53;49.17
55604;BME280;41468;48.838;9.330;2023-04-06T07:59:09;98579.88;;;8.52;47.72
55604;BME280;41468;48.838;9.330;2023-04-06T08:01:37;98577.63;;;8.70;48.00
55604;BME280;41468;48.838;9.330;2023-04-06T08:04:04;98578.25;;;8.79;46.78
55604;BME280;41468;48.838;9.330;2023-04-06T08:06:31;98580.13;;;9.23;47.06
55604;BME280;41468;48.838;9.330;2023-04-06T08:08:58;98579.41;;;9.10;45.79
55604;BME280;41468;48.838;9.330;2023-04-06T08:11:25;98573.91;;;9.22;45.73
55604;BME280;41468;48.838;9.330;2023-04-06T08:13:53;98573.50;;;9.56;45.20
55604;BME280;41468;48.838;9.330;2023-04-06T08:16:20;98583.28;;;9.57;44.98
55604;BME280;41468;48.838;9.330;2023-04-06T08:18:47;98582.63;;;9.79;44.71
55604;BME280;41468;48.838;9.330;2023-04-06T08:21:14;98585.69;;;10.13;44.19
55604;BME280;41468;48.838;9.330;2023-04-06T08:23:41;98575.56;;;10.13;43.95
55604;BME280;41468;48.838;9.330;2023-04-06T08:26:07;98582.81;;;11.06;52.50
55604;BME280;41468;48.838;9.330;2023-04-06T08:28:34;98579.75;;;10.66;43.73
55604;BME280;41468;48.838;9.330;2023-04-06T08:31:12;98583.56;;;10.42;41.95
55604;BME280;41468;48.838;9.330;2023-04-06T08:33:39;98584.47;;;10.88;41.48
55604;BME280;41468;48.838;9.330;2023-04-06T08:36:10;98587.75;;;10.97;41.36
55604;BME280;41468;48.838;9.330;2023-04-06T08:38:38;98584.16;;;11.16;41.21
55604;BME280;41468;48.838;9.330;2023-04-06T08:41:10;98581.78;;;11.15;41.15
55604;BME280;41468;48.838;9.330;2023-04-06T08:43:43;98581.88;;;11.18;41.37
55604;BME280;41468;48.838;9.330;2023-04-06T08:46:11;98584.22;;;11.20;41.64
55604;BME280;41468;48.838;9.330;2023-04-06T08:48:40;98580.31;;;11.44;41.61
55604;BME280;41468;48.838;9.330;2023-04-06T08:51:08;98587.84;;;11.50;38.88
55604;BME280;41468;48.838;9.330;2023-04-06T08:53:35;98580.47;;;11.55;39.98
55604;BME280;41468;48.838;9.330;2023-04-06T08:56:03;98574.22;;;11.81;40.67
55604;BME280;41468;48.838;9.330;2023-04-06T08:58:34;98574.53;;;11.99;40.07
55604;BME280;41468;48.838;9.330;2023-04-06T09:01:08;98576.72;;;11.89;39.55
55604;BME280;41468;48.838;9.330;2023-04-06T09:03:40;98556.03;;;11.92;39.65
55604;BME280;41468;48.838;9.330;2023-04-06T09:06:08;98568.34;;;11.52;38.97
55604;BME280;41468;48.838;9.330;2023-04-06T09:08:38;98570.25;;;12.01;36.83
55604;BME280;41468;48.838;9.330;2023-04-06T09:11:05;98563.88;;;12.24;38.66
55604;BME280;41468;48.838;9.330;2023-04-06T09:13:47;98560.31;;;12.53;38.36
55604;BME280;41468;48.838;9.330;2023-04-06T09:16:14;98551.91;;;12.73;36.25
55604;BME280;41468;48.838;9.330;2023-04-06T09:18:42;98549.16;;;12.73;37.15
55604;BME280;41468;48.838;9.330;2023-04-06T09:21:09;98549.03;;;12.96;37.29
55604;BME280;41468;48.838;9.330;2023-04-06T09:23:37;98552.25;;;12.68;36.44
55604;BME280;41468;48.838;9.330;2023-04-06T09:26:15;98548.69;;;13.01;36.15
55604;BME280;41468;48.838;9.330;2023-04-06T09:28:53;98551.22;;;12.46;37.26
55604;BME280;41468;48.838;9.330;2023-04-06T09:31:27;98551.06;;;13.06;35.61
55604;BME280;41468;48.838;9.330;2023-04-06T09:33:55;98544.41;;;13.07;36.64
55604;BME280;41468;48.838;9.330;2023-04-06T09:36:32;98545.84;;;12.94;34.10
55604;BME280;41468;48.838;9.330;2023-04-06T09:39:02;98550.47;;;13.27;35.04
55604;BME280;41468;48.838;9.330;2023-04-06T09:41:30;98553.59;;;13.25;34.43
55604;BME280;41468;48.838;9.330;2023-04-06T09:44:12;98545.44;;;13.33;34.52
55604;BME280;41468;48.838;9.330;2023-04-06T09:46:41;98537.84;;;13.19;35.34
55604;BME280;41468;48.838;9.330;2023-04-06T09:49:27;98533.28;;;13.30;35.11
55604;BME280;41468;48.838;9.330;2023-04-06T09:51:59;98538.81;;;13.37;35.57
55604;BME280;41468;48.838;9.330;2023-04-06T09:54:34;98539.19;;;13.95;34.73
55604;BME280;41468;48.838;9.330;2023-04-06T09:57:13;98539.44;;;13.72;34.21
55604;BME280;41468;48.838;9.330;2023-04-06T09:59:59;98529.94;;;14.35;35.00
55604;BME280;41468;48.838;9.330;2023-04-06T10:02:41;98534.00;;;14.70;32.72
55604;BME280;41468;48.838;9.330;2023-04-06T10:08:02;98528.94;;;14.97;31.48
55604;BME280;41468;48.838;9.330;2023-04-06T10:10:31;98535.97;;;14.73;31.26
55604;BME280;41468;48.838;9.330;2023-04-06T10:12:58;98535.56;;;14.85;32.47
55604;BME280;41468;48.838;9.330;2023-04-06T10:15:24;98530.09;;;15.24;31.75
55604;BME280;41468;48.838;9.330;2023-04-06T10:17:52;98533.25;;;14.94;30.00
55604;BME280;41468;48.838;9.330;2023-04-06T10:20:33;98534.06;;;15.13;31.02
55604;BME280;41468;48.838;9.330;2023-04-06T10:23:26;98526.16;;;15.43;29.95
55604;BME280;41468;48.838;9.330;2023-04-06T10:25:57;98526.56;;;15.45;30.60
55604;BME280;41468;48.838;9.330;2023-04-06T10:28:26;98528.13;;;15.46;31.52
55604;BME280;41468;48.838;9.330;2023-04-06T10:31:00;98528.09;;;15.68;31.26
55604;BME280;41468;48.838;9.330;2023-04-06T10:33:28;98528.81;;;16.08;29.90
55604;BME280;41468;48.838;9.330;2023-04-06T10:35:55;98527.59;;;16.09;29.48
55604;BME280;41468;48.838;9.330;2023-04-06T10:38:38;98517.50;;;15.66;30.92
55604;BME280;41468;48.838;9.330;2023-04-06T10:41:09;98520.53;;;16.15;30.34
55604;BME280;41468;48.838;9.330;2023-04-06T10:43:38;98516.31;;;15.67;30.31
55604;BME280;41468;48.838;9.330;2023-04-06T10:46:07;98514.63;;;16.06;30.62
55604;BME280;41468;48.838;9.330;2023-04-06T10:51:10;98508.00;;;16.73;31.39
55604;BME280;41468;48.838;9.330;2023-04-06T10:53:41;98505.19;;;16.84;30.11
55604;BME280;41468;48.838;9.330;2023-04-06T10:56:12;98504.25;;;17.09;30.23
55604;BME280;41468;48.838;9.330;2023-04-06T10:58:46;98511.53;;;16.81;28.55
55604;BME280;41468;48.838;9.330;2023-04-06T11:01:22;98510.38;;;17.31;28.96
55604;BME280;41468;48.838;9.330;2023-04-06T11:03:55;98510.34;;;16.75;27.60
55604;BME280;41468;48.838;9.330;2023-04-06T11:06:30;98508.50;;;16.54;28.17
55604;BME280;41468;48.838;9.330;2023-04-06T11:09:00;98502.47;;;16.73;28.32
55604;BME280;41468;48.838;9.330;2023-04-06T11:11:26;98501.69;;;16.76;28.24
55604;BME280;41468;48.838;9.330;2023-04-06T11:14:00;98504.41;;;16.84;29.27
55604;BME280;41468;48.838;9.330;2023-04-06T11:16:29;98504.09;;;16.67;27.83
55604;BME280;41468;48.838;9.330;2023-04-06T11:19:03;98496.06;;;16.98;28.86
55604;BME280;41468;48.838;9.330;2023-04-06T11:21:38;98502.59;;;16.55;27.47
55604;BME280;41468;48.838;9.330;2023-04-06T11:24:19;98490.59;;;16.91;26.72
55604;BME280;41468;48.838;9.330;2023-04-06T11:26:50;98486.53;;;17.06;28.50
55604;BME280;41468;48.838;9.330;2023-04-06T11:29:19;98480.03;;;17.27;28.38
55604;BME280;41468;48.838;9.330;2023-04-06T11:32:06;98476.91;;;17.21;28.90
55604;BME280;41468;48.838;9.330;2023-04-06T11:34:46;98474.84;;;17.33;28.86
55604;BME280;41468;48.838;9.330;2023-04-06T11:37:13;98463.69;;;17.47;28.93
55604;BME280;41468;48.838;9.330;2023-04-06T11:39:47;98468.00;;;17.48;29.89
55604;BME280;41468;48.838;9.330;2023-04-06T11:42:24;98460.94;;;17.43;28.11
55604;BME280;41468;48.838;9.330;2023-04-06T11:44:53;98460.03;;;17.54;27.65
55604;BME280;41468;48.838;9.330;2023-04-06T11:47:27;98459.72;;;17.48;27.69
55604;BME280;41468;48.838;9.330;2023-04-06T11:49:54;98457.72;;;17.90;28.30
55604;BME280;41468;48.838;9.330;2023-04-06T11:52:28;98455.84;;;17.80;27.80
55604;BME280;41468;48.838;9.330;2023-04-06T11:54:56;98453.47;;;17.78;28.00
55604;BME280;41468;48.838;9.330;2023-04-06T11:57:23;98456.34;;;18.05;25.62
55604;BME280;41468;48.838;9.330;2023-04-06T12:00:00;98450.38;;;17.35;27.68
55604;BME280;41468;48.838;9.330;2023-04-06T12:02:26;98448.28;;;17.46;26.67
55604;BME280;41468;48.838;9.330;2023-04-06T12:04:53;98451.41;;;16.58;26.04
55604;BME280;41468;48.838;9.330;2023-04-06T12:07:20;98442.72;;;16.60;26.98
55604;BME280;41468;48.838;9.330;2023-04-06T12:09:46;98454.56;;;15.76;28.29
55604;BME280;41468;48.838;9.330;2023-04-06T12:12:13;98455.56;;;16.14;28.82
55604;BME280;41468;48.838;9.330;2023-04-06T12:14:40;98446.56;;;16.73;26.85
55604;BME280;41468;48.838;9.330;2023-04-06T12:17:07;98441.59;;;17.06;27.15
55604;BME280;41468;48.838;9.330;2023-04-06T12:19:33;98436.69;;;17.28;26.07
55604;BME280;41468;48.838;9.330;2023-04-06T12:22:00;98435.72;;;17.04;26.31
55604;BME280;41468;48.838;9.330;2023-04-06T12:24:28;98427.03;;;17.43;26.82
55604;BME280;41468;48.838;9.330;2023-04-06T12:26:55;98431.25;;;17.17;24.54
55604;BME280;41468;48.838;9.330;2023-04-06T12:29:35;98436.25;;;17.29;26.89
55604;BME280;41468;48.838;9.330;2023-04-06T12:32:02;98426.06;;;17.22;28.13
55604;BME280;41468;48.838;9.330;2023-04-06T12:34:29;98424.34;;;16.98;26.31
55604;BME280;41468;48.838;9.330;2023-04-06T12:36:55;98425.84;;;17.03;25.99
55604;BME280;41468;48.838;9.330;2023-04-06T12:39:27;98417.13;;;17.08;26.79
55604;BME280;41468;48.838;9.330;2023-04-06T12:41:54;98418.66;;;16.64;27.03
55604;BME280;41468;48.838;9.330;2023-04-06T12:44:22;98422.47;;;16.28;25.63
55604;BME280;41468;48.838;9.330;2023-04-06T12:46:52;98416.03;;;17.02;27.52
55604;BME280;41468;48.838;9.330;2023-04-06T12:49:19;98418.75;;;17.43;27.20
55604;BME280;41468;48.838;9.330;2023-04-06T12:51:46;98410.84;;;17.83;26.92
55604;BME280;41468;48.838;9.330;2023-04-06T12:54:12;98402.88;;;17.88;27.11
55604;BME280;41468;48.838;9.330;2023-04-06T12:56:50;98407.72;;;17.43;26.45
55604;BME280;41468;48.838;9.330;2023-04-06T12:59:17;98407.38;;;17.37;27.69
55604;BME280;41468;48.838;9.330;2023-04-06T13:01:44;98407.72;;;17.43;26.03
55604;BME280;41468;48.838;9.330;2023-04-06T13:04:11;98410.03;;;17.48;26.83
55604;BME280;41468;48.838;9.330;2023-04-06T13:06:38;98405.56;;;16.78;26.38
55604;BME280;41468;48.838;9.330;2023-04-06T13:09:04;98411.38;;;17.33;26.34
55604;BME280;41468;48.838;9.330;2023-04-06T13:11:32;98403.91;;;17.33;27.17
55604;BME280;41468;48.838;9.330;2023-04-06T13:13:58;98397.94;;;16.41;25.42
55604;BME280;41468;48.838;9.330;2023-04-06T13:16:25;98392.56;;;16.79;26.56
55604;BME280;41468;48.838;9.330;2023-04-06T13:18:52;98388.78;;;17.07;24.68
55604;BME280;41468;48.838;9.330;2023-04-06T13:21:19;98386.91;;;16.97;25.29